Time;durP1;ratioP1;P1;durP2;ratioP2;P2;SDS_P1;SDS_P2;PMS_P1;PMS_P2;Temp;Humidity;BMP_temperature;BMP_pressure;BME280_temperature;BME280_humidity;BME280_pressure;Samples;Min_cycle;Max_cycle;Signal;HPM_P1;HPM_P2
2023/06/04 00:02:21;;;;;;;8.17;6.83;;;19.60;95.70;;;;;;5116323;27;20195;-64
2023/06/04 00:04:48;;;;;;;10.13;7.40;;;19.60;95.70;;;;;;5123519;27;20667;-65
2023/06/04 00:07:16;;;;;;;9.97;8.23;;;19.60;95.70;;;;;;5115021;27;20216;-64
2023/06/04 00:09:45;;;;;;;8.00;7.20;;;19.60;95.80;;;;;;5118474;27;20200;-65
2023/06/04 00:12:12;;;;;;;13.33;7.47;;;19.60;95.90;;;;;;5124012;27;20202;-64
2023/06/04 00:14:39;;;;;;;13.37;8.20;;;19.70;96.00;;;;;;5117513;27;20652;-66
2023/06/04 00:17:07;;;;;;;13.03;8.97;;;19.70;96.00;;;;;;5122365;27;20561;-65
2023/06/04 00:19:34;;;;;;;11.07;8.23;;;19.70;96.10;;;;;;5121156;27;20255;-65
2023/06/04 00:22:01;;;;;;;14.70;8.60;;;19.70;96.00;;;;;;5117334;27;20208;-64
2023/06/04 00:24:28;;;;;;;10.07;8.70;;;19.70;96.00;;;;;;5118323;27;20604;-65
2023/06/04 00:26:55;;;;;;;12.03;9.57;;;19.70;96.00;;;;;;5117875;27;20213;-65
2023/06/04 00:29:22;;;;;;;13.33;9.63;;;19.70;96.10;;;;;;5116748;27;20527;-65
2023/06/04 00:31:49;;;;;;;12.77;9.47;;;19.70;96.10;;;;;;5122007;27;20299;-65
2023/06/04 00:34:18;;;;;;;10.93;8.93;;;19.70;96.10;;;;;;5114103;27;20242;-66
2023/06/04 00:36:45;;;;;;;13.73;9.27;;;19.70;96.00;;;;;;5116024;27;20211;-65
2023/06/04 00:39:12;;;;;;;14.17;8.70;;;19.70;96.00;;;;;;5118573;27;20290;-64
2023/06/04 00:41:39;;;;;;;12.10;8.83;;;19.70;96.00;;;;;;5122550;27;20199;-65
2023/06/04 00:44:06;;;;;;;18.17;9.20;;;19.70;96.00;;;;;;5121753;27;20231;-69
2023/06/04 00:46:35;;;;;;;18.50;8.60;;;19.70;95.90;;;;;;5120323;27;20208;-64
2023/06/04 00:49:04;;;;;;;15.20;9.17;;;19.70;95.90;;;;;;5118748;27;20247;-64
2023/06/04 00:51:32;;;;;;;22.20;11.73;;;19.70;95.90;;;;;;5115663;27;20279;-65
2023/06/04 00:54:02;;;;;;;14.73;10.77;;;19.60;96.00;;;;;;5118133;27;20206;-65
2023/06/04 00:56:29;;;;;;;13.27;11.83;;;19.60;96.10;;;;;;5117826;27;20598;-65
2023/06/04 00:58:57;;;;;;;18.97;12.60;;;19.60;96.10;;;;;;5114901;27;20545;-64
2023/06/04 01:01:37;;;;;;;22.87;12.50;;;19.60;96.10;;;;;;5105629;27;20220;-64
2023/06/04 01:04:06;;;;;;;18.37;11.77;;;19.60;96.20;;;;;;5118166;27;20201;-64
2023/06/04 01:06:38;;;;;;;20.73;12.33;;;19.60;96.20;;;;;;5116978;27;20208;-65
2023/06/04 01:09:05;;;;;;;24.60;13.07;;;19.60;96.30;;;;;;5117651;27;20228;-64
2023/06/04 01:11:39;;;;;;;21.27;12.23;;;19.60;96.30;;;;;;5119190;27;20183;-65
2023/06/04 01:14:10;;;;;;;22.00;12.43;;;19.60;96.30;;;;;;5112883;27;20663;-64
2023/06/04 01:17:03;;;;;;;23.97;13.23;;;19.60;96.30;;;;;;5117949;27;20277;-65
2023/06/04 01:19:41;;;;;;;22.00;13.10;;;19.60;96.40;;;;;;5114057;27;20204;-65
2023/06/04 01:22:23;;;;;;;22.30;12.27;;;19.60;96.40;;;;;;5115065;27;20223;-65
2023/06/04 01:24:59;;;;;;;18.00;13.00;;;19.60;96.50;;;;;;5118534;27;20211;-65
2023/06/04 01:27:26;;;;;;;21.20;12.73;;;19.60;96.50;;;;;;5116708;27;20215;-64
2023/06/04 01:29:56;;;;;;;21.40;12.97;;;19.60;96.50;;;;;;5114000;27;20189;-64
2023/06/04 01:32:24;;;;;;;20.03;12.17;;;19.60;96.60;;;;;;5119336;27;20204;-65
2023/06/04 01:34:52;;;;;;;21.07;12.57;;;19.60;96.60;;;;;;5113017;27;20199;-65
2023/06/04 01:37:19;;;;;;;28.97;14.13;;;19.60;96.60;;;;;;5115336;27;20673;-65
2023/06/04 01:39:46;;;;;;;15.97;12.80;;;19.60;96.70;;;;;;5122131;27;20222;-65
2023/06/04 01:42:13;;;;;;;17.60;12.67;;;19.60;96.60;;;;;;5101905;28;20207;-66
2023/06/04 01:44:41;;;;;;;21.47;13.00;;;19.60;96.60;;;;;;5113618;27;20195;-64
2023/06/04 01:47:08;;;;;;;18.00;13.53;;;19.60;96.60;;;;;;5119360;27;20691;-65
2023/06/04 01:49:35;;;;;;;18.63;13.47;;;19.60;96.60;;;;;;5106403;28;20299;-65
2023/06/04 01:52:02;;;;;;;18.80;12.77;;;19.60;96.70;;;;;;5115269;27;20208;-64
2023/06/04 01:54:30;;;;;;;20.43;13.10;;;19.60;96.70;;;;;;5116913;27;20299;-65
2023/06/04 01:56:57;;;;;;;16.43;12.63;;;19.60;96.70;;;;;;5113466;28;20229;-65
2023/06/04 01:59:27;;;;;;;18.23;12.23;;;19.60;96.70;;;;;;5116455;27;20501;-64
2023/06/04 02:01:54;;;;;;;18.43;13.57;;;19.60;96.70;;;;;;5120318;27;20648;-65
2023/06/04 02:04:21;;;;;;;17.93;13.53;;;19.60;96.70;;;;;;5114719;27;20208;-65
2023/06/04 02:06:48;;;;;;;21.33;13.13;;;19.60;96.70;;;;;;5114376;27;20318;-65
2023/06/04 02:09:15;;;;;;;18.03;11.87;;;19.50;96.70;;;;;;5119501;27;20244;-65
2023/06/04 02:11:42;;;;;;;19.60;11.57;;;19.60;96.70;;;;;;5115343;27;20184;-64
2023/06/04 02:14:10;;;;;;;18.70;11.97;;;19.60;96.70;;;;;;5114497;28;20528;-66
2023/06/04 02:16:37;;;;;;;18.93;12.13;;;19.50;96.60;;;;;;5120409;27;20193;-65
2023/06/04 02:19:04;;;;;;;18.50;12.73;;;19.50;96.60;;;;;;5127205;27;20201;-65
2023/06/04 02:21:32;;;;;;;21.20;12.70;;;19.50;96.60;;;;;;5112087;28;20226;-65
2023/06/04 02:23:59;;;;;;;17.53;11.10;;;19.50;96.60;;;;;;5116544;27;20199;-65
2023/06/04 02:26:26;;;;;;;16.30;11.53;;;19.50;96.60;;;;;;5115894;27;20196;-66
2023/06/04 02:28:54;;;;;;;30.40;12.67;;;19.50;96.50;;;;;;5110562;27;20215;-65
2023/06/04 02:31:21;;;;;;;21.80;12.57;;;19.40;96.40;;;;;;5115698;27;20272;-64
2023/06/04 02:33:48;;;;;;;21.47;13.60;;;19.40;96.30;;;;;;5114943;27;20206;-65
2023/06/04 02:36:17;;;;;;;18.47;12.83;;;19.40;96.30;;;;;;5113011;27;20626;-64
2023/06/04 02:38:44;;;;;;;21.80;13.00;;;19.30;96.30;;;;;;5116283;28;20204;-64
2023/06/04 02:41:11;;;;;;;26.13;12.70;;;19.30;96.40;;;;;;5114566;27;20261;-64
2023/06/04 02:43:38;;;;;;;23.53;12.17;;;19.20;96.40;;;;;;5111826;28;20223;-65
2023/06/04 02:46:06;;;;;;;20.97;12.33;;;19.20;96.50;;;;;;5114260;27;20200;-65
2023/06/04 02:48:33;;;;;;;23.43;12.73;;;19.20;96.50;;;;;;5112653;27;20235;-64
2023/06/04 02:51:00;;;;;;;17.17;12.23;;;19.20;96.50;;;;;;5119379;27;20272;-65
2023/06/04 02:53:27;;;;;;;18.83;12.80;;;19.20;96.60;;;;;;5115230;27;20544;-67
2023/06/04 02:55:54;;;;;;;19.40;12.70;;;19.20;96.60;;;;;;5111103;27;20274;-64
2023/06/04 02:58:24;;;;;;;18.07;10.10;;;19.20;96.70;;;;;;5123198;28;20207;-65
2023/06/04 03:00:53;;;;;;;16.73;11.57;;;19.20;96.70;;;;;;5115506;28;20203;-64
2023/06/04 03:03:20;;;;;;;19.43;12.77;;;19.10;96.60;;;;;;5113081;28;20515;-64
2023/06/04 03:05:47;;;;;;;16.10;12.17;;;19.10;96.60;;;;;;5121611;28;20192;-64
2023/06/04 03:08:14;;;;;;;16.43;10.93;;;19.10;96.60;;;;;;5112356;28;20490;-65
2023/06/04 03:10:41;;;;;;;15.83;12.47;;;19.10;96.60;;;;;;5112774;28;20203;-65
2023/06/04 03:13:08;;;;;;;11.83;9.93;;;19.00;96.60;;;;;;5118434;28;20199;-65
2023/06/04 03:15:38;;;;;;;15.13;10.63;;;19.00;96.60;;;;;;5116728;28;20234;-65
2023/06/04 03:18:06;;;;;;;20.27;12.10;;;19.00;96.50;;;;;;5115162;28;20215;-64
2023/06/04 03:20:37;;;;;;;13.93;10.77;;;19.00;96.50;;;;;;5112280;28;20265;-64
2023/06/04 03:23:05;;;;;;;15.30;9.60;;;19.00;96.60;;;;;;5115990;28;20236;-65
2023/06/04 03:25:32;;;;;;;15.73;9.90;;;18.90;96.60;;;;;;5126365;28;20340;-64
2023/06/04 03:27:59;;;;;;;9.63;8.37;;;18.90;96.60;;;;;;5116659;28;20204;-64
2023/06/04 03:30:26;;;;;;;8.33;7.47;;;18.90;96.60;;;;;;5133258;27;20231;-65
2023/06/04 03:33:02;;;;;;;8.50;7.60;;;18.80;96.60;;;;;;5111587;28;20232;-64
2023/06/04 03:35:29;;;;;;;10.27;7.50;;;18.80;96.70;;;;;;5118136;28;20673;-64
2023/06/04 03:37:56;;;;;;;10.23;7.43;;;18.80;96.70;;;;;;5116065;28;20650;-64
2023/06/04 03:40:23;;;;;;;10.07;6.07;;;18.70;96.70;;;;;;5113745;28;20545;-64
2023/06/04 03:42:51;;;;;;;6.80;6.17;;;18.70;96.70;;;;;;5116398;28;20200;-64
2023/06/04 03:45:20;;;;;;;8.37;6.23;;;18.70;96.70;;;;;;5114949;28;20368;-64
2023/06/04 03:47:47;;;;;;;7.60;6.80;;;18.70;96.70;;;;;;5113575;28;20755;-66
2023/06/04 03:50:14;;;;;;;7.53;6.83;;;18.70;96.70;;;;;;5103134;28;20227;-64
2023/06/04 03:52:42;;;;;;;14.60;8.07;;;18.70;96.70;;;;;;5099062;28;20203;-66
2023/06/04 03:55:10;;;;;;;6.60;5.93;;;18.70;96.70;;;;;;5108884;28;20204;-65
2023/06/04 03:57:39;;;;;;;7.77;6.70;;;18.70;96.60;;;;;;5114964;28;20204;-64
2023/06/04 04:00:12;;;;;;;11.17;7.87;;;18.70;96.60;;;;;;5109457;28;20240;-65
2023/06/04 04:02:40;;;;;;;8.13;7.33;;;18.70;96.60;;;;;;5115881;28;20516;-64
2023/06/04 04:05:12;;;;;;;6.73;5.77;;;18.70;96.60;;;;;;5120355;27;20283;-64
2023/06/04 04:07:43;;;;;;;9.70;7.00;;;18.70;96.70;;;;;;5109118;27;20204;-64
2023/06/04 04:10:11;;;;;;;8.63;6.27;;;18.70;96.70;;;;;;5118416;27;20191;-64
2023/06/04 04:12:38;;;;;;;7.80;6.63;;;18.70;96.60;;;;;;5118219;27;20200;-64
2023/06/04 04:15:06;;;;;;;7.67;6.87;;;18.70;96.70;;;;;;5115193;27;20529;-64
2023/06/04 04:17:33;;;;;;;7.00;6.40;;;18.70;96.70;;;;;;5119391;27;20199;-64
2023/06/04 04:20:03;;;;;;;5.47;4.97;;;18.70;96.70;;;;;;5120962;27;20226;-65
2023/06/04 04:22:33;;;;;;;6.23;5.70;;;18.70;96.70;;;;;;5116602;27;20218;-64
2023/06/04 04:25:01;;;;;;;7.37;6.63;;;18.70;96.80;;;;;;5114408;27;20649;-66
2023/06/04 04:27:30;;;;;;;9.27;6.53;;;18.80;96.80;;;;;;5118900;27;20598;-65
2023/06/04 04:30:00;;;;;;;9.03;7.17;;;18.80;96.80;;;;;;5114759;27;20210;-65
2023/06/04 04:32:30;;;;;;;6.80;5.63;;;18.90;96.90;;;;;;5108990;28;20627;-64
2023/06/04 04:34:59;;;;;;;17.67;6.23;;;18.90;96.80;;;;;;5115189;27;20210;-64
2023/06/04 04:37:33;;;;;;;11.30;9.60;;;19.00;96.70;;;;;;5111369;27;20214;-64
2023/06/04 04:40:00;;;;;;;15.63;8.20;;;19.00;96.50;;;;;;5120063;27;20195;-65
2023/06/04 04:42:31;;;;;;;20.17;7.47;;;19.00;96.40;;;;;;5119232;27;20298;-64
2023/06/04 04:44:59;;;;;;;14.47;8.53;;;19.10;96.50;;;;;;5115894;27;20238;-67
2023/06/04 04:47:28;;;;;;;11.63;8.30;;;19.20;96.60;;;;;;5121199;27;20554;-64
2023/06/04 04:49:55;;;;;;;10.07;9.07;;;19.20;96.70;;;;;;5118369;27;20287;-65
2023/06/04 04:52:22;;;;;;;15.60;10.37;;;19.30;96.80;;;;;;5116752;27;20227;-64
2023/06/04 04:54:49;;;;;;;15.97;11.87;;;19.30;96.80;;;;;;5120406;27;20231;-64
2023/06/04 04:57:16;;;;;;;14.23;10.73;;;19.40;96.90;;;;;;5120860;27;20199;-64
2023/06/04 04:59:46;;;;;;;19.00;12.63;;;19.50;97.00;;;;;;5112948;27;20220;-65
2023/06/04 05:02:14;;;;;;;22.80;13.77;;;19.60;97.00;;;;;;5113276;27;20593;-66
2023/06/04 05:04:41;;;;;;;22.30;14.53;;;19.70;97.10;;;;;;5115097;27;20234;-65
2023/06/04 05:07:09;;;;;;;17.00;13.63;;;19.80;97.00;;;;;;5112000;27;20552;-64
2023/06/04 05:09:37;;;;;;;18.23;14.97;;;19.90;97.00;;;;;;5115826;27;20280;-64
2023/06/04 05:12:05;;;;;;;22.17;14.23;;;20.00;96.90;;;;;;5118984;27;20209;-64
2023/06/04 05:14:35;;;;;;;23.33;15.93;;;20.00;96.90;;;;;;5115716;27;20192;-64
2023/06/04 05:17:06;;;;;;;20.10;14.93;;;20.10;96.90;;;;;;5112208;27;20245;-66
2023/06/04 05:19:34;;;;;;;19.77;16.57;;;20.10;96.90;;;;;;5114818;27;20207;-64
2023/06/04 05:22:01;;;;;;;23.33;15.67;;;20.20;96.90;;;;;;5112368;27;20208;-64
2023/06/04 05:24:29;;;;;;;22.17;15.40;;;20.20;96.90;;;;;;5113981;27;20283;-65
2023/06/04 05:26:58;;;;;;;20.90;15.23;;;20.30;96.90;;;;;;5105144;28;20637;-64
2023/06/04 05:29:26;;;;;;;18.67;16.53;;;20.40;96.90;;;;;;5116584;27;20626;-64
2023/06/04 05:31:53;;;;;;;18.73;16.63;;;20.50;96.90;;;;;;5118920;27;20192;-64
2023/06/04 05:34:21;;;;;;;26.10;16.37;;;20.50;96.90;;;;;;5115703;27;20212;-64
2023/06/04 05:36:50;;;;;;;19.20;15.40;;;20.60;97.00;;;;;;5113589;27;20559;-64
2023/06/04 05:39:18;;;;;;;22.80;16.37;;;20.70;97.00;;;;;;5121058;27;20536;-64
2023/06/04 05:41:52;;;;;;;25.07;17.60;;;20.80;97.00;;;;;;5116696;27;20207;-64
2023/06/04 05:44:19;;;;;;;21.17;16.27;;;20.90;96.90;;;;;;5118565;27;20298;-64
2023/06/04 05:46:47;;;;;;;20.90;16.27;;;21.00;96.80;;;;;;5112552;27;20196;-65
2023/06/04 05:49:14;;;;;;;24.77;17.27;;;21.00;96.70;;;;;;5116347;27;20307;-64
2023/06/04 05:51:42;;;;;;;25.47;16.60;;;21.10;96.80;;;;;;5110314;27;20216;-65
2023/06/04 05:54:09;;;;;;;22.37;17.60;;;21.10;96.70;;;;;;5116957;27;20197;-65
2023/06/04 05:56:40;;;;;;;25.10;17.13;;;21.20;96.70;;;;;;5118190;27;20193;-64
2023/06/04 05:59:07;;;;;;;21.50;17.87;;;21.30;96.80;;;;;;5114547;27;20230;-65
2023/06/04 06:01:34;;;;;;;20.97;17.17;;;21.40;96.80;;;;;;5115791;27;20198;-64
2023/06/04 06:04:02;;;;;;;20.47;16.20;;;21.60;96.80;;;;;;5114332;27;20212;-65
2023/06/04 06:06:30;;;;;;;20.37;15.27;;;21.80;96.70;;;;;;5114435;27;20291;-65
2023/06/04 06:08:58;;;;;;;16.73;14.93;;;21.90;96.50;;;;;;5117947;27;20224;-65
2023/06/04 06:11:26;;;;;;;22.23;15.53;;;22.10;96.20;;;;;;5125296;27;20200;-64
2023/06/04 06:13:54;;;;;;;23.17;16.07;;;22.30;95.90;;;;;;5112113;28;20212;-65
2023/06/04 06:16:22;;;;;;;16.60;14.77;;;22.50;95.70;;;;;;5098901;28;20232;-64
2023/06/04 06:18:49;;;;;;;20.43;15.10;;;22.60;95.50;;;;;;5113374;27;20196;-64
2023/06/04 06:21:16;;;;;;;23.90;15.20;;;22.70;95.20;;;;;;5117555;27;20532;-65
2023/06/04 06:23:43;;;;;;;17.03;13.97;;;22.90;95.00;;;;;;5103234;27;20219;-64
2023/06/04 06:26:10;;;;;;;15.50;13.90;;;23.00;94.80;;;;;;5112591;27;21747;-65
2023/06/04 06:28:45;;;;;;;15.73;14.13;;;23.10;94.30;;;;;;5112455;28;20212;-66
2023/06/04 06:31:13;;;;;;;18.33;13.77;;;23.20;93.90;;;;;;5119140;27;20234;-65
2023/06/04 06:33:41;;;;;;;14.07;12.67;;;23.40;93.70;;;;;;5109720;27;20288;-65
2023/06/04 06:36:12;;;;;;;18.90;14.47;;;23.40;92.60;;;;;;5115102;27;20201;-65
2023/06/04 06:38:39;;;;;;;15.27;13.27;;;23.50;92.40;;;;;;5121064;27;20204;-65
2023/06/04 06:41:07;;;;;;;17.63;13.47;;;23.50;92.60;;;;;;5111288;27;20269;-64
2023/06/04 06:43:35;;;;;;;17.10;14.07;;;23.60;92.80;;;;;;5117648;27;20215;-64
2023/06/04 06:46:02;;;;;;;18.70;13.43;;;23.70;92.90;;;;;;5117128;27;20223;-64
2023/06/04 06:48:29;;;;;;;15.67;12.40;;;23.90;92.90;;;;;;5109311;27;20297;-65
2023/06/04 06:50:56;;;;;;;12.53;11.07;;;24.00;92.40;;;;;;5114832;27;20284;-65
2023/06/04 06:53:23;;;;;;;15.57;12.57;;;24.10;91.20;;;;;;5113307;27;20272;-66
2023/06/04 06:55:50;;;;;;;13.67;11.43;;;24.10;90.80;;;;;;5114565;27;20539;-65
2023/06/04 06:58:17;;;;;;;13.13;11.67;;;24.20;90.50;;;;;;5116586;27;20211;-66
2023/06/04 07:00:45;;;;;;;13.13;10.97;;;24.10;90.60;;;;;;5112320;28;20201;-65
2023/06/04 07:03:12;;;;;;;13.13;10.33;;;24.20;90.30;;;;;;5112423;28;20257;-65
2023/06/04 07:05:39;;;;;;;12.23;9.50;;;24.20;90.20;;;;;;5116167;28;20200;-66
2023/06/04 07:08:06;;;;;;;12.40;11.10;;;24.20;90.30;;;;;;5115655;28;20223;-64
2023/06/04 07:10:33;;;;;;;13.00;10.47;;;24.40;89.80;;;;;;5115087;28;20623;-64
2023/06/04 07:13:00;;;;;;;15.17;10.00;;;24.50;89.80;;;;;;5115072;28;20206;-65
2023/06/04 07:15:27;;;;;;;14.10;9.53;;;24.60;88.90;;;;;;5114297;28;20193;-65
2023/06/04 07:17:55;;;;;;;15.40;10.00;;;24.80;89.00;;;;;;5113733;28;20515;-65
2023/06/04 07:20:22;;;;;;;14.83;9.50;;;25.00;89.00;;;;;;5115537;28;20196;-65
2023/06/04 07:22:49;;;;;;;14.20;9.90;;;25.10;88.80;;;;;;5115093;28;20209;-65
2023/06/04 07:25:16;;;;;;;13.73;8.60;;;25.40;89.30;;;;;;5108311;28;20196;-64
2023/06/04 07:27:43;;;;;;;11.07;9.87;;;25.50;87.70;;;;;;5120025;28;20227;-64
2023/06/04 07:30:10;;;;;;;11.97;10.00;;;25.60;86.10;;;;;;5116665;28;20251;-64
2023/06/04 07:32:37;;;;;;;14.77;10.10;;;25.60;86.30;;;;;;5113636;28;20204;-64
2023/06/04 07:35:05;;;;;;;14.60;9.87;;;25.50;86.00;;;;;;5116357;28;20560;-64
2023/06/04 07:37:32;;;;;;;12.87;10.10;;;25.50;86.00;;;;;;5111138;28;20233;-65
2023/06/04 07:39:59;;;;;;;11.23;10.13;;;25.50;85.00;;;;;;5117211;27;20194;-64
2023/06/04 07:42:26;;;;;;;11.70;9.70;;;25.50;85.20;;;;;;5124025;27;20202;-64
2023/06/04 07:44:53;;;;;;;13.73;9.83;;;25.60;85.20;;;;;;5118181;27;20207;-64
2023/06/04 07:47:20;;;;;;;14.20;10.00;;;25.60;85.20;;;;;;5116738;27;20642;-65
2023/06/04 07:49:47;;;;;;;13.17;9.90;;;25.60;85.20;;;;;;5119015;27;20722;-65
2023/06/04 07:52:28;;;;;;;11.70;10.50;;;25.70;84.50;;;;;;5114437;28;20194;-63
2023/06/04 07:54:56;;;;;;;11.67;10.30;;;25.60;83.30;;;;;;5115361;28;21168;-64
2023/06/04 07:57:23;;;;;;;12.43;10.83;;;25.50;84.20;;;;;;5116994;28;20207;-64
2023/06/04 07:59:51;;;;;;;15.47;10.80;;;25.40;85.40;;;;;;5114602;28;20207;-63
2023/06/04 08:02:19;;;;;;;14.20;10.60;;;25.40;86.00;;;;;;5116771;28;20204;-64
2023/06/04 08:04:47;;;;;;;11.10;9.90;;;25.30;85.20;;;;;;5116697;27;20246;-65
2023/06/04 08:07:14;;;;;;;13.27;11.47;;;25.30;84.80;;;;;;5115923;28;20200;-64
2023/06/04 08:09:41;;;;;;;17.13;11.73;;;25.20;85.20;;;;;;5116174;27;20215;-65
2023/06/04 08:12:08;;;;;;;14.00;11.37;;;25.10;85.50;;;;;;5114294;28;20234;-64
2023/06/04 08:14:37;;;;;;;16.37;11.77;;;25.00;86.30;;;;;;5115191;28;20651;-64
2023/06/04 08:17:04;;;;;;;14.47;10.57;;;25.10;86.70;;;;;;5114258;28;20595;-64
2023/06/04 08:19:31;;;;;;;13.33;12.00;;;25.30;87.10;;;;;;5116945;27;20215;-65
2023/06/04 08:21:58;;;;;;;12.63;10.90;;;25.50;87.20;;;;;;5115416;28;20199;-64
2023/06/04 08:24:25;;;;;;;20.70;11.90;;;25.60;86.00;;;;;;5113679;27;20199;-64
2023/06/04 08:26:52;;;;;;;14.77;12.40;;;25.60;84.40;;;;;;5116536;27;20209;-65
2023/06/04 08:29:19;;;;;;;15.30;12.07;;;25.60;85.00;;;;;;5114314;28;20560;-64
2023/06/04 08:31:46;;;;;;;15.17;11.30;;;25.70;85.70;;;;;;5116423;27;20215;-65
2023/06/04 08:34:14;;;;;;;17.07;12.23;;;25.80;86.00;;;;;;5116004;28;20228;-64
2023/06/04 08:36:41;;;;;;;13.87;12.00;;;25.90;85.40;;;;;;5116553;27;20287;-65
2023/06/04 08:39:09;;;;;;;14.03;11.50;;;26.00;85.30;;;;;;5116512;27;20202;-64
2023/06/04 08:41:43;;;;;;;13.30;11.90;;;26.10;85.30;;;;;;5115268;27;20288;-64
2023/06/04 08:44:11;;;;;;;15.07;11.40;;;26.30;84.60;;;;;;5115737;28;20529;-64
2023/06/04 08:46:40;;;;;;;14.50;11.37;;;26.40;82.50;;;;;;5115644;27;20291;-64
2023/06/04 08:49:08;;;;;;;13.53;12.10;;;26.30;80.30;;;;;;5115802;27;20247;-64
2023/06/04 08:51:37;;;;;;;12.50;10.80;;;26.30;81.30;;;;;;5114293;27;20623;-64
2023/06/04 08:54:08;;;;;;;15.63;11.37;;;26.30;82.90;;;;;;5115968;27;20193;-64
2023/06/04 08:56:37;;;;;;;11.73;10.17;;;26.70;82.70;;;;;;5111762;27;20200;-64
2023/06/04 08:59:08;;;;;;;12.13;10.57;;;26.90;82.20;;;;;;5115606;27;20224;-64
2023/06/04 09:01:41;;;;;;;12.77;11.40;;;27.10;80.60;;;;;;5116006;27;20196;-64
2023/06/04 09:04:08;;;;;;;12.73;10.60;;;27.20;79.70;;;;;;5115842;27;20215;-64
2023/06/04 09:06:41;;;;;;;16.17;11.10;;;27.20;78.80;;;;;;5115091;27;20207;-64
2023/06/04 09:09:12;;;;;;;12.63;11.33;;;27.20;78.80;;;;;;5115076;28;21388;-64
2023/06/04 09:11:45;;;;;;;13.53;10.70;;;27.20;79.10;;;;;;5112049;27;20200;-64
2023/06/04 09:14:16;;;;;;;14.43;10.57;;;27.30;78.40;;;;;;5115377;27;20193;-64
2023/06/04 09:16:51;;;;;;;13.47;12.10;;;27.40;79.00;;;;;;5112177;27;20224;-65
2023/06/04 09:19:19;;;;;;;12.43;10.57;;;27.60;78.80;;;;;;5115445;27;20287;-64
2023/06/04 09:21:57;;;;;;;12.57;11.30;;;27.60;78.20;;;;;;5107947;27;20811;-65
2023/06/04 09:24:38;;;;;;;12.00;10.90;;;27.60;77.00;;;;;;5115159;27;20192;-64
2023/06/04 09:27:19;;;;;;;14.90;10.63;;;27.60;77.20;;;;;;5111963;27;20291;-64
2023/06/04 09:29:55;;;;;;;15.97;11.20;;;27.60;76.00;;;;;;5114375;27;20291;-65
2023/06/04 09:32:29;;;;;;;11.77;10.53;;;27.60;77.90;;;;;;5114852;27;20577;-65
2023/06/04 09:35:12;;;;;;;12.20;10.73;;;27.60;78.40;;;;;;5114483;27;20249;-65
2023/06/04 09:37:40;;;;;;;10.80;9.80;;;27.90;78.50;;;;;;5111747;27;20223;-65
2023/06/04 09:40:08;;;;;;;11.93;10.83;;;28.10;76.50;;;;;;5114463;27;20290;-64
2023/06/04 09:42:43;;;;;;;12.93;11.63;;;28.20;75.80;;;;;;5115339;27;20220;-65
2023/06/04 09:45:11;;;;;;;13.90;11.43;;;28.20;75.20;;;;;;5112225;27;20207;-65
2023/06/04 09:47:42;;;;;;;13.63;11.47;;;28.40;75.40;;;;;;5115549;28;20726;-65
2023/06/04 09:50:12;;;;;;;11.13;10.03;;;28.60;75.70;;;;;;5114800;27;20219;-65
2023/06/04 09:52:40;;;;;;;12.13;10.83;;;28.70;76.20;;;;;;5115434;27;20197;-64
2023/06/04 09:55:22;;;;;;;14.83;10.90;;;28.90;74.50;;;;;;5114670;27;20612;-65
2023/06/04 09:57:50;;;;;;;12.60;10.93;;;28.80;74.40;;;;;;5114269;27;20265;-65
2023/06/04 10:00:20;;;;;;;10.93;9.93;;;28.70;73.40;;;;;;5114438;27;20261;-65
2023/06/04 10:02:48;;;;;;;11.07;9.97;;;28.50;73.20;;;;;;5112410;28;20291;-65
2023/06/04 10:05:16;;;;;;;12.03;10.13;;;28.40;74.10;;;;;;5115435;27;20204;-64
2023/06/04 10:07:45;;;;;;;11.33;10.07;;;28.30;74.00;;;;;;5114944;27;20205;-65
2023/06/04 10:10:16;;;;;;;12.87;10.33;;;28.20;74.50;;;;;;5114988;27;20212;-65
2023/06/04 10:12:45;;;;;;;12.10;10.40;;;28.10;75.70;;;;;;5114085;27;20555;-65
2023/06/04 10:15:13;;;;;;;11.03;10.07;;;28.00;76.00;;;;;;5114702;27;20212;-65
2023/06/04 10:17:40;;;;;;;13.00;10.23;;;28.00;75.20;;;;;;5115184;27;20208;-65
2023/06/04 10:20:08;;;;;;;10.90;9.73;;;28.00;74.70;;;;;;5114035;28;20642;-65
2023/06/04 10:22:39;;;;;;;11.60;10.50;;;28.00;74.20;;;;;;5114709;27;20248;-65
2023/06/04 10:25:08;;;;;;;12.07;10.87;;;28.00;74.10;;;;;;5114897;27;20275;-65
2023/06/04 10:27:37;;;;;;;10.13;9.03;;;28.00;73.70;;;;;;5114818;28;20631;-65
2023/06/04 10:30:05;;;;;;;11.30;9.97;;;28.00;72.90;;;;;;5113486;27;20288;-65
2023/06/04 10:32:34;;;;;;;10.20;9.20;;;28.00;73.40;;;;;;5114715;27;20601;-65
2023/06/04 10:35:07;;;;;;;9.53;8.50;;;28.00;72.70;;;;;;5113410;27;20651;-65
2023/06/04 10:37:34;;;;;;;12.27;9.70;;;28.00;72.70;;;;;;5113362;28;20633;-65
2023/06/04 10:40:04;;;;;;;13.70;9.20;;;28.10;72.20;;;;;;5113923;27;20538;-65
2023/06/04 10:42:42;;;;;;;12.77;8.87;;;28.10;72.60;;;;;;5114646;28;20491;-65
2023/06/04 10:45:11;;;;;;;12.90;8.53;;;28.30;72.40;;;;;;5115181;27;20195;-65
2023/06/04 10:47:40;;;;;;;11.30;8.77;;;28.30;71.30;;;;;;5113719;28;20240;-64
2023/06/04 10:50:13;;;;;;;9.43;8.53;;;28.20;71.80;;;;;;5114419;27;20204;-65
2023/06/04 10:52:55;;;;;;;10.80;8.63;;;28.10;72.20;;;;;;5114996;27;20200;-65
2023/06/04 10:55:23;;;;;;;9.30;8.20;;;27.90;72.00;;;;;;5114402;28;20243;-65
2023/06/04 10:57:58;;;;;;;9.97;8.97;;;27.80;72.90;;;;;;5112598;28;20208;-65
2023/06/04 11:00:42;;;;;;;10.17;8.90;;;27.80;73.20;;;;;;5108979;28;20199;-65
2023/06/04 11:03:11;;;;;;;12.87;9.03;;;27.70;71.70;;;;;;5111391;28;20287;-65
2023/06/04 11:05:43;;;;;;;10.07;9.17;;;27.70;72.90;;;;;;5114069;28;20204;-64
2023/06/04 11:08:13;;;;;;;9.50;8.60;;;28.00;72.80;;;;;;5112014;28;20206;-65
2023/06/04 11:10:44;;;;;;;9.17;8.23;;;28.20;70.70;;;;;;5112465;28;20231;-65
2023/06/04 11:13:11;;;;;;;10.80;9.17;;;28.20;70.70;;;;;;5114818;27;20189;-65
2023/06/04 11:15:44;;;;;;;10.20;8.40;;;28.10;71.30;;;;;;5115979;27;20193;-64
2023/06/04 11:18:20;;;;;;;9.33;8.43;;;28.10;70.80;;;;;;5117971;27;20192;-64
2023/06/04 11:20:48;;;;;;;9.20;8.30;;;27.90;70.50;;;;;;5119088;27;20577;-64
2023/06/04 11:23:16;;;;;;;11.43;8.40;;;27.70;71.10;;;;;;5117525;27;20192;-64
2023/06/04 11:25:44;;;;;;;9.33;8.53;;;27.60;72.50;;;;;;5116360;27;20204;-65
2023/06/04 11:28:21;;;;;;;10.43;8.53;;;27.40;72.40;;;;;;5118482;27;20718;-64
2023/06/04 11:31:02;;;;;;;10.03;9.07;;;27.30;72.90;;;;;;5117209;27;20549;-65
2023/06/04 11:33:40;;;;;;;9.63;8.23;;;27.20;74.30;;;;;;5117486;28;20196;-64
2023/06/04 11:36:08;;;;;;;9.97;8.00;;;27.20;74.40;;;;;;5117226;27;20231;-64
2023/06/04 11:38:35;;;;;;;9.93;7.90;;;27.40;74.10;;;;;;5116173;27;20215;-64
2023/06/04 11:41:04;;;;;;;9.00;8.03;;;27.80;73.60;;;;;;5117856;27;20208;-65
2023/06/04 11:43:32;;;;;;;9.90;8.77;;;28.10;72.40;;;;;;5114911;27;20203;-64
2023/06/04 11:46:05;;;;;;;9.90;8.67;;;28.20;71.80;;;;;;5118743;27;20273;-65
2023/06/04 11:48:33;;;;;;;8.77;7.90;;;28.20;71.10;;;;;;5117758;27;20591;-65
2023/06/04 11:51:06;;;;;;;10.10;8.50;;;28.20;71.50;;;;;;5113054;27;20299;-64
2023/06/04 11:53:36;;;;;;;9.60;8.70;;;28.10;71.20;;;;;;5118166;27;20196;-65
2023/06/04 11:56:04;;;;;;;9.63;8.63;;;27.90;72.10;;;;;;5114240;27;20201;-65
2023/06/04 11:58:32;;;;;;;9.90;8.90;;;27.80;72.70;;;;;;5118211;27;20220;-64
2023/06/04 12:00:59;;;;;;;10.20;8.40;;;27.80;71.60;;;;;;5118195;27;20196;-64
2023/06/04 12:03:36;;;;;;;11.90;8.50;;;27.80;72.20;;;;;;5114733;27;20702;-64
2023/06/04 12:06:17;;;;;;;9.70;8.70;;;28.00;72.40;;;;;;5114434;27;20264;-64
2023/06/04 12:08:52;;;;;;;8.20;7.50;;;28.30;71.40;;;;;;5118338;27;20203;-65
2023/06/04 12:11:33;;;;;;;12.97;8.47;;;28.60;69.70;;;;;;5117344;27;20208;-65
2023/06/04 12:14:05;;;;;;;8.83;6.77;;;28.80;69.00;;;;;;5117220;27;20193;-64
2023/06/04 12:16:33;;;;;;;10.67;7.97;;;29.00;69.50;;;;;;5116030;27;20635;-64
2023/06/04 12:19:11;;;;;;;8.60;7.80;;;29.20;68.60;;;;;;5117320;27;20596;-64
2023/06/04 12:21:39;;;;;;;14.60;7.60;;;29.20;68.70;;;;;;5116903;27;20189;-64
2023/06/04 12:24:10;;;;;;;8.13;7.43;;;29.20;68.40;;;;;;5116086;27;20560;-64
2023/06/04 12:26:40;;;;;;;11.27;7.40;;;29.20;66.20;;;;;;5116063;28;20200;-64
2023/06/04 12:29:12;;;;;;;7.40;6.70;;;29.30;66.30;;;;;;5116678;27;20257;-65
2023/06/04 12:31:45;;;;;;;8.80;7.90;;;29.30;67.10;;;;;;5116919;27;20257;-64
2023/06/04 12:34:17;;;;;;;8.67;7.77;;;29.30;66.60;;;;;;5117337;27;20646;-64
2023/06/04 12:36:44;;;;;;;10.17;7.10;;;29.40;67.50;;;;;;5115270;27;20196;-65
2023/06/04 12:39:11;;;;;;;8.60;7.67;;;29.60;67.60;;;;;;5117240;27;20200;-64
2023/06/04 12:41:45;;;;;;;7.93;7.23;;;29.80;66.80;;;;;;5115811;27;20222;-64
2023/06/04 12:44:12;;;;;;;7.97;7.10;;;29.90;66.80;;;;;;5117503;27;20235;-64